KLM491 EBBR-EGLL
Flight info
| Callsign | KLM491 |
|---|---|
| Flight time | 0h 47m |
| Altitude | 24000 |
| Route | HELEN L179 COA L608 LOGAN |
| Aircraft | B77W/H-SDE1E2E3FGHIJ2J3J4J5M1RWXY/LB1D1 |
Departure
| Time | 2026-05-07 19:57 |
|---|---|
| Airport | Brussels Airport (EBBR) |
Arrival
| Time | 2026-05-07 20:44 |
|---|---|
| Airport | London Heathrow Airport (EGLL) |
| Time | Latitude | Longitude | Altitude | Speed | Heading |
|---|---|---|---|---|---|
| 2026-05-07 19:35 | 50.89981 | 4.48877 | 149 ft | 0 kts | 335° |
| 2026-05-07 19:46 | 50.89979 | 4.48878 | 149 ft | 2 kts | 335° |
| 2026-05-07 19:47 | 50.89964 | 4.48888 | 149 ft | 2 kts | 342° |
| 2026-05-07 19:47 | 50.89948 | 4.48894 | 150 ft | 2 kts | 351° |
| 2026-05-07 19:47 | 50.89932 | 4.48897 | 150 ft | 2 kts | 1° |
| 2026-05-07 19:47 | 50.89915 | 4.48894 | 150 ft | 2 kts | 14° |
| 2026-05-07 19:48 | 50.89900 | 4.48886 | 150 ft | 2 kts | 28° |
| 2026-05-07 19:48 | 50.89886 | 4.48871 | 150 ft | 2 kts | 41° |
| 2026-05-07 19:48 | 50.89875 | 4.48853 | 150 ft | 2 kts | 52° |
| 2026-05-07 19:48 | 50.89866 | 4.48832 | 150 ft | 2 kts | 60° |
| 2026-05-07 19:49 | 50.89861 | 4.48817 | 154 ft | 1 kts | 64° |
| 2026-05-07 19:49 | 50.89860 | 4.48815 | 154 ft | 0 kts | 65° |
| 2026-05-07 19:51 | 50.89860 | 4.48866 | 152 ft | 10 kts | 102° |
| 2026-05-07 19:51 | 50.89847 | 4.48981 | 150 ft | 11 kts | 94° |
| 2026-05-07 19:52 | 50.89862 | 4.49096 | 151 ft | 11 kts | 66° |
| 2026-05-07 19:52 | 50.89892 | 4.49203 | 150 ft | 11 kts | 65° |
| 2026-05-07 19:52 | 50.89927 | 4.49322 | 150 ft | 14 kts | 65° |
| 2026-05-07 19:52 | 50.90003 | 4.49406 | 150 ft | 14 kts | 20° |
| 2026-05-07 19:53 | 50.90051 | 4.49479 | 149 ft | 2 kts | 63° |
| 2026-05-07 19:53 | 50.90077 | 4.49558 | 149 ft | 18 kts | 63° |
| 2026-05-07 19:53 | 50.90136 | 4.49737 | 149 ft | 18 kts | 63° |
| 2026-05-07 19:53 | 50.90195 | 4.49917 | 148 ft | 18 kts | 62° |
| 2026-05-07 19:54 | 50.90254 | 4.50097 | 148 ft | 18 kts | 62° |
| 2026-05-07 19:54 | 50.90335 | 4.50249 | 148 ft | 18 kts | 28° |
| 2026-05-07 19:54 | 50.90453 | 4.50308 | 147 ft | 18 kts | 14° |
| 2026-05-07 19:54 | 50.90572 | 4.50357 | 146 ft | 18 kts | 14° |
| 2026-05-07 19:55 | 50.90692 | 4.50405 | 146 ft | 18 kts | 14° |
| 2026-05-07 19:55 | 50.90812 | 4.50455 | 145 ft | 18 kts | 14° |
| 2026-05-07 19:55 | 50.90933 | 4.50504 | 144 ft | 18 kts | 14° |
| 2026-05-07 19:55 | 50.91056 | 4.50532 | 143 ft | 19 kts | 355° |
| 2026-05-07 19:56 | 50.91193 | 4.50474 | 143 ft | 23 kts | 322° |
| 2026-05-07 19:56 | 50.91237 | 4.50242 | 141 ft | 23 kts | 261° |
| 2026-05-07 19:56 | 50.91154 | 4.49928 | 140 ft | 51 kts | 245° |
| 2026-05-07 19:56 | 50.90881 | 4.48985 | 144 ft | 135 kts | 245° |
| 2026-05-07 19:57 | 50.90408 | 4.47315 | 358 ft | 181 kts | 246° |
| 2026-05-07 19:57 | 50.89899 | 4.45444 | 1164 ft | 187 kts | 249° |
| 2026-05-07 19:57 | 50.89778 | 4.43428 | 2006 ft | 191 kts | 288° |
| 2026-05-07 19:57 | 50.90558 | 4.41634 | 2379 ft | 212 kts | 315° |
| 2026-05-07 19:58 | 50.91658 | 4.39801 | 2666 ft | 246 kts | 313° |
| 2026-05-07 19:58 | 50.92811 | 4.37670 | 3365 ft | 260 kts | 310° |
| 2026-05-07 19:58 | 50.93948 | 4.35436 | 4308 ft | 266 kts | 309° |
| 2026-05-07 19:58 | 50.95099 | 4.33101 | 5337 ft | 270 kts | 308° |
| 2026-05-07 19:59 | 50.96246 | 4.30746 | 6344 ft | 271 kts | 307° |
| 2026-05-07 19:59 | 50.97418 | 4.28378 | 6942 ft | 275 kts | 310° |
| 2026-05-07 19:59 | 50.98740 | 4.26154 | 7068 ft | 279 kts | 314° |
| 2026-05-07 19:59 | 51.00129 | 4.24005 | 7084 ft | 278 kts | 315° |
| 2026-05-07 20:00 | 51.01520 | 4.21873 | 7062 ft | 276 kts | 315° |
| 2026-05-07 20:00 | 51.02882 | 4.19768 | 7195 ft | 277 kts | 315° |
| 2026-05-07 20:00 | 51.04268 | 4.17610 | 8051 ft | 279 kts | 314° |
| 2026-05-07 20:00 | 51.05659 | 4.15429 | 9076 ft | 281 kts | 314° |
| 2026-05-07 20:01 | 51.07053 | 4.13234 | 10043 ft | 284 kts | 314° |
| 2026-05-07 20:01 | 51.08460 | 4.11008 | 10708 ft | 297 kts | 314° |
| 2026-05-07 20:01 | 51.09995 | 4.08570 | 10962 ft | 327 kts | 314° |
| 2026-05-07 20:01 | 51.11677 | 4.05894 | 11200 ft | 357 kts | 314° |
| 2026-05-07 20:02 | 51.13477 | 4.03026 | 11842 ft | 373 kts | 314° |
| 2026-05-07 20:02 | 51.15339 | 4.00058 | 12853 ft | 381 kts | 314° |
| 2026-05-07 20:02 | 51.17229 | 3.97042 | 13975 ft | 386 kts | 314° |
| 2026-05-07 20:02 | 51.19138 | 3.93994 | 15011 ft | 391 kts | 313° |
| 2026-05-07 20:03 | 51.21065 | 3.90908 | 16068 ft | 395 kts | 313° |
| 2026-05-07 20:03 | 51.22979 | 3.87740 | 17017 ft | 397 kts | 308° |
| 2026-05-07 20:03 | 51.24360 | 3.83917 | 17838 ft | 400 kts | 289° |
| 2026-05-07 20:03 | 51.25226 | 3.79663 | 18577 ft | 408 kts | 287° |
| 2026-05-07 20:04 | 51.26121 | 3.75349 | 19449 ft | 411 kts | 288° |
| 2026-05-07 20:04 | 51.27047 | 3.71026 | 20464 ft | 412 kts | 288° |
| 2026-05-07 20:04 | 51.27992 | 3.66681 | 21392 ft | 416 kts | 288° |
| 2026-05-07 20:04 | 51.28954 | 3.62287 | 22217 ft | 422 kts | 288° |
| 2026-05-07 20:05 | 51.29927 | 3.57852 | 23182 ft | 422 kts | 288° |
| 2026-05-07 20:05 | 51.30898 | 3.53424 | 23960 ft | 423 kts | 288° |
| 2026-05-07 20:05 | 51.31869 | 3.48981 | 24074 ft | 423 kts | 288° |
| 2026-05-07 20:05 | 51.32834 | 3.44560 | 24076 ft | 420 kts | 288° |
| 2026-05-07 20:06 | 51.33793 | 3.40154 | 24075 ft | 417 kts | 288° |
| 2026-05-07 20:06 | 51.34742 | 3.35780 | 24075 ft | 417 kts | 288° |
| 2026-05-07 20:06 | 51.35715 | 3.31469 | 24087 ft | 418 kts | 289° |
| 2026-05-07 20:06 | 51.36759 | 3.27131 | 24082 ft | 418 kts | 290° |
| 2026-05-07 20:07 | 51.37816 | 3.22794 | 24084 ft | 418 kts | 290° |
| 2026-05-07 20:07 | 51.38865 | 3.18445 | 24082 ft | 418 kts | 289° |
| 2026-05-07 20:07 | 51.39902 | 3.14093 | 24080 ft | 418 kts | 289° |
| 2026-05-07 20:07 | 51.40932 | 3.09734 | 24079 ft | 418 kts | 289° |
| 2026-05-07 20:08 | 51.41959 | 3.05369 | 24082 ft | 418 kts | 289° |
| 2026-05-07 20:08 | 51.42638 | 3.02474 | 24082 ft | 418 kts | 289° |
| 2026-05-07 20:08 | 51.43660 | 2.98111 | 24082 ft | 418 kts | 289° |
| 2026-05-07 20:08 | 51.44681 | 2.93745 | 24082 ft | 418 kts | 289° |
| 2026-05-07 20:09 | 51.45700 | 2.89379 | 24081 ft | 418 kts | 289° |
| 2026-05-07 20:09 | 51.46715 | 2.85020 | 24082 ft | 418 kts | 289° |
| 2026-05-07 20:09 | 51.47732 | 2.80648 | 24082 ft | 418 kts | 289° |
| 2026-05-07 20:10 | 51.49758 | 2.71906 | 24087 ft | 417 kts | 289° |
| 2026-05-07 20:10 | 51.50767 | 2.67542 | 24087 ft | 417 kts | 289° |
| 2026-05-07 20:10 | 51.51775 | 2.63172 | 24086 ft | 417 kts | 289° |
| 2026-05-07 20:10 | 51.52782 | 2.58797 | 24087 ft | 417 kts | 289° |
| 2026-05-07 20:11 | 51.53789 | 2.54420 | 24085 ft | 417 kts | 289° |
| 2026-05-07 20:11 | 51.54778 | 2.50105 | 24091 ft | 417 kts | 289° |
| 2026-05-07 20:11 | 51.55776 | 2.45726 | 24088 ft | 417 kts | 288° |
| 2026-05-07 20:11 | 51.56770 | 2.41343 | 24085 ft | 417 kts | 288° |
| 2026-05-07 20:12 | 51.57765 | 2.36948 | 24091 ft | 417 kts | 288° |
| 2026-05-07 20:12 | 51.58760 | 2.32558 | 24090 ft | 417 kts | 289° |
| 2026-05-07 20:12 | 51.59761 | 2.28165 | 24087 ft | 417 kts | 289° |
| 2026-05-07 20:12 | 51.60760 | 2.23778 | 24087 ft | 417 kts | 289° |
| 2026-05-07 20:13 | 51.61746 | 2.19443 | 24085 ft | 417 kts | 289° |
| 2026-05-07 20:13 | 51.62739 | 2.15060 | 24082 ft | 417 kts | 288° |
| 2026-05-07 20:13 | 51.63734 | 2.10661 | 24081 ft | 417 kts | 288° |
| 2026-05-07 20:13 | 51.64845 | 2.06356 | 24084 ft | 417 kts | 296° |
| 2026-05-07 20:14 | 51.66408 | 2.02405 | 24088 ft | 420 kts | 306° |
| 2026-05-07 20:14 | 51.68407 | 1.98945 | 24086 ft | 423 kts | 316° |
| 2026-05-07 20:14 | 51.70772 | 1.96098 | 24093 ft | 426 kts | 326° |
| 2026-05-07 20:14 | 51.73437 | 1.93944 | 24091 ft | 430 kts | 336° |
| 2026-05-07 20:15 | 51.76261 | 1.92331 | 24097 ft | 431 kts | 340° |
| 2026-05-07 20:15 | 51.79127 | 1.90906 | 24093 ft | 428 kts | 341° |
| 2026-05-07 20:15 | 51.81925 | 1.89579 | 24090 ft | 411 kts | 341° |
| 2026-05-07 20:15 | 51.84586 | 1.88337 | 24072 ft | 395 kts | 341° |
| 2026-05-07 20:16 | 51.87165 | 1.87114 | 24064 ft | 374 kts | 337° |
| 2026-05-07 20:16 | 51.89299 | 1.85031 | 24098 ft | 348 kts | 311° |
| 2026-05-07 20:16 | 51.90552 | 1.81801 | 24099 ft | 338 kts | 284° |
| 2026-05-07 20:16 | 51.90724 | 1.78071 | 24101 ft | 335 kts | 258° |
| 2026-05-07 20:17 | 51.89863 | 1.74585 | 24111 ft | 337 kts | 239° |
| 2026-05-07 20:17 | 51.88548 | 1.71414 | 24105 ft | 341 kts | 234° |
| 2026-05-07 20:17 | 51.87100 | 1.68353 | 24104 ft | 344 kts | 231° |
| 2026-05-07 20:17 | 51.85430 | 1.65545 | 24093 ft | 345 kts | 221° |
| 2026-05-07 20:18 | 51.83407 | 1.63503 | 24089 ft | 344 kts | 204° |
| 2026-05-07 20:18 | 51.81144 | 1.62418 | 24098 ft | 343 kts | 194° |
| 2026-05-07 20:18 | 51.78813 | 1.61653 | 24079 ft | 340 kts | 201° |
| 2026-05-07 20:18 | 51.76736 | 1.59888 | 24099 ft | 337 kts | 221° |
| 2026-05-07 20:19 | 51.75197 | 1.57071 | 24096 ft | 337 kts | 239° |
| 2026-05-07 20:19 | 51.74259 | 1.53623 | 24029 ft | 336 kts | 258° |
| 2026-05-07 20:19 | 51.73930 | 1.49913 | 23678 ft | 335 kts | 263° |
| 2026-05-07 20:19 | 51.73711 | 1.46174 | 23190 ft | 334 kts | 264° |
| 2026-05-07 20:20 | 51.73505 | 1.42436 | 22628 ft | 332 kts | 264° |
| 2026-05-07 20:20 | 51.73296 | 1.38761 | 22042 ft | 325 kts | 264° |
| 2026-05-07 20:20 | 51.73081 | 1.35181 | 21507 ft | 324 kts | 263° |
| 2026-05-07 20:20 | 51.72852 | 1.31538 | 20979 ft | 328 kts | 263° |
| 2026-05-07 20:21 | 51.72615 | 1.27870 | 20437 ft | 326 kts | 263° |
| 2026-05-07 20:21 | 51.72378 | 1.24253 | 19904 ft | 321 kts | 263° |
| 2026-05-07 20:21 | 51.72141 | 1.20693 | 19383 ft | 317 kts | 263° |
| 2026-05-07 20:21 | 51.71905 | 1.17185 | 18870 ft | 313 kts | 263° |
| 2026-05-07 20:22 | 51.71673 | 1.13754 | 18372 ft | 310 kts | 263° |
| 2026-05-07 20:22 | 51.71439 | 1.10317 | 17795 ft | 307 kts | 263° |
| 2026-05-07 20:22 | 51.71207 | 1.06909 | 17240 ft | 304 kts | 262° |
| 2026-05-07 20:22 | 51.70975 | 1.03520 | 16680 ft | 303 kts | 262° |
| 2026-05-07 20:23 | 51.70743 | 1.00156 | 16149 ft | 301 kts | 262° |
| 2026-05-07 20:23 | 51.70511 | 0.96803 | 15620 ft | 300 kts | 262° |
| 2026-05-07 20:23 | 51.70279 | 0.93464 | 15099 ft | 299 kts | 262° |
| 2026-05-07 20:23 | 51.70048 | 0.90138 | 14588 ft | 298 kts | 262° |
| 2026-05-07 20:24 | 51.69816 | 0.86806 | 14078 ft | 298 kts | 262° |
| 2026-05-07 20:24 | 51.69585 | 0.83493 | 13540 ft | 297 kts | 262° |
| 2026-05-07 20:24 | 51.69356 | 0.80229 | 12988 ft | 296 kts | 262° |
| 2026-05-07 20:24 | 51.69126 | 0.76936 | 12444 ft | 295 kts | 262° |
| 2026-05-07 20:25 | 51.68894 | 0.73654 | 11906 ft | 294 kts | 262° |
| 2026-05-07 20:25 | 51.68661 | 0.70381 | 11375 ft | 293 kts | 262° |
| 2026-05-07 20:25 | 51.68429 | 0.67122 | 10844 ft | 291 kts | 262° |
| 2026-05-07 20:25 | 51.68197 | 0.63887 | 10338 ft | 288 kts | 262° |
| 2026-05-07 20:26 | 51.67969 | 0.60705 | 9808 ft | 284 kts | 262° |
| 2026-05-07 20:26 | 51.67743 | 0.57556 | 9244 ft | 281 kts | 262° |
| 2026-05-07 20:26 | 51.67514 | 0.54399 | 8710 ft | 286 kts | 262° |
| 2026-05-07 20:26 | 51.67284 | 0.51235 | 8252 ft | 288 kts | 262° |
| 2026-05-07 20:27 | 51.67053 | 0.48075 | 8087 ft | 280 kts | 263° |
| 2026-05-07 20:27 | 51.66829 | 0.45000 | 8083 ft | 274 kts | 263° |
| 2026-05-07 20:27 | 51.66603 | 0.41947 | 8078 ft | 274 kts | 262° |
| 2026-05-07 20:27 | 51.66378 | 0.38894 | 8091 ft | 275 kts | 262° |
| 2026-05-07 20:28 | 51.66151 | 0.35839 | 8092 ft | 274 kts | 262° |
| 2026-05-07 20:28 | 51.65925 | 0.32792 | 8073 ft | 274 kts | 263° |
| 2026-05-07 20:28 | 51.65698 | 0.29741 | 8077 ft | 274 kts | 262° |
| 2026-05-07 20:28 | 51.65470 | 0.26691 | 8079 ft | 273 kts | 262° |
| 2026-05-07 20:29 | 51.65243 | 0.23656 | 8071 ft | 274 kts | 262° |
| 2026-05-07 20:29 | 51.65017 | 0.20649 | 8075 ft | 273 kts | 262° |
| 2026-05-07 20:29 | 51.64794 | 0.17612 | 8073 ft | 274 kts | 264° |
| 2026-05-07 20:29 | 51.64649 | 0.14541 | 8076 ft | 274 kts | 265° |
| 2026-05-07 20:30 | 51.64534 | 0.11476 | 8082 ft | 274 kts | 265° |
| 2026-05-07 20:30 | 51.64425 | 0.08402 | 8073 ft | 275 kts | 266° |
| 2026-05-07 20:30 | 51.64318 | 0.05327 | 8079 ft | 274 kts | 266° |
| 2026-05-07 20:30 | 51.64212 | 0.02257 | 8077 ft | 275 kts | 266° |
| 2026-05-07 20:31 | 51.64106 | -0.00816 | 8060 ft | 274 kts | 266° |
| 2026-05-07 20:31 | 51.63992 | -0.03880 | 8062 ft | 274 kts | 266° |
| 2026-05-07 20:31 | 51.63874 | -0.06942 | 8051 ft | 274 kts | 266° |
| 2026-05-07 20:31 | 51.63753 | -0.10001 | 8049 ft | 274 kts | 266° |
| 2026-05-07 20:32 | 51.63633 | -0.13015 | 8044 ft | 273 kts | 266° |
| 2026-05-07 20:32 | 51.63510 | -0.16074 | 8035 ft | 270 kts | 266° |
| 2026-05-07 20:32 | 51.63390 | -0.19069 | 8004 ft | 274 kts | 266° |
| 2026-05-07 20:32 | 51.63264 | -0.22163 | 7801 ft | 278 kts | 266° |
| 2026-05-07 20:33 | 51.63138 | -0.25262 | 7588 ft | 276 kts | 266° |
| 2026-05-07 20:33 | 51.63012 | -0.28333 | 7392 ft | 273 kts | 266° |
| 2026-05-07 20:33 | 51.62886 | -0.31370 | 7190 ft | 270 kts | 266° |
| 2026-05-07 20:33 | 51.62762 | -0.34343 | 7117 ft | 265 kts | 266° |
| 2026-05-07 20:34 | 51.62636 | -0.37329 | 7098 ft | 269 kts | 265° |
| 2026-05-07 20:34 | 51.62510 | -0.40349 | 7084 ft | 271 kts | 266° |
| 2026-05-07 20:34 | 51.62382 | -0.43382 | 7083 ft | 271 kts | 266° |
| 2026-05-07 20:34 | 51.62256 | -0.46374 | 7080 ft | 271 kts | 266° |
| 2026-05-07 20:35 | 51.62129 | -0.49394 | 7075 ft | 270 kts | 266° |
| 2026-05-07 20:35 | 51.62000 | -0.52428 | 6962 ft | 273 kts | 266° |
| 2026-05-07 20:35 | 51.61869 | -0.55492 | 6702 ft | 275 kts | 266° |
| 2026-05-07 20:35 | 51.61735 | -0.58570 | 6397 ft | 275 kts | 266° |
| 2026-05-07 20:36 | 51.61629 | -0.61284 | 6172 ft | 271 kts | 267° |
| 2026-05-07 20:36 | 51.61521 | -0.64305 | 5841 ft | 270 kts | 266° |
| 2026-05-07 20:36 | 51.61323 | -0.67293 | 5465 ft | 267 kts | 257° |
| 2026-05-07 20:36 | 51.60814 | -0.70177 | 5125 ft | 268 kts | 251° |
| 2026-05-07 20:37 | 51.60104 | -0.72924 | 4738 ft | 265 kts | 237° |
| 2026-05-07 20:37 | 51.59040 | -0.75347 | 4410 ft | 266 kts | 232° |
| 2026-05-07 20:37 | 51.57905 | -0.77698 | 4076 ft | 266 kts | 231° |
| 2026-05-07 20:37 | 51.56645 | -0.79725 | 3983 ft | 251 kts | 209° |
| 2026-05-07 20:38 | 51.55065 | -0.80533 | 3986 ft | 235 kts | 183° |
| 2026-05-07 20:38 | 51.53456 | -0.80652 | 3986 ft | 230 kts | 181° |
| 2026-05-07 20:38 | 51.51910 | -0.80750 | 3977 ft | 222 kts | 181° |
| 2026-05-07 20:38 | 51.50425 | -0.80847 | 4003 ft | 204 kts | 181° |
| 2026-05-07 20:39 | 51.49116 | -0.80592 | 3994 ft | 188 kts | 154° |
| 2026-05-07 20:39 | 51.48192 | -0.79154 | 3828 ft | 186 kts | 114° |
| 2026-05-07 20:39 | 51.47914 | -0.77175 | 3636 ft | 185 kts | 98° |
| 2026-05-07 20:39 | 51.47761 | -0.75129 | 3386 ft | 183 kts | 97° |
| 2026-05-07 20:40 | 51.47638 | -0.73125 | 3130 ft | 177 kts | 94° |
| 2026-05-07 20:40 | 51.47598 | -0.71180 | 2890 ft | 170 kts | 91° |
| 2026-05-07 20:40 | 51.47599 | -0.69345 | 2662 ft | 162 kts | 91° |
| 2026-05-07 20:40 | 51.47607 | -0.67565 | 2466 ft | 160 kts | 91° |
| 2026-05-07 20:41 | 51.47619 | -0.65765 | 2251 ft | 162 kts | 91° |
| 2026-05-07 20:41 | 51.47631 | -0.63954 | 2021 ft | 162 kts | 91° |
| 2026-05-07 20:41 | 51.47642 | -0.62157 | 1811 ft | 162 kts | 91° |
| 2026-05-07 20:41 | 51.47654 | -0.60351 | 1579 ft | 163 kts | 91° |
| 2026-05-07 20:42 | 51.47665 | -0.58560 | 1355 ft | 156 kts | 91° |
| 2026-05-07 20:42 | 51.47678 | -0.56880 | 1147 ft | 144 kts | 91° |
| 2026-05-07 20:42 | 51.47688 | -0.55286 | 980 ft | 143 kts | 91° |
| 2026-05-07 20:42 | 51.47698 | -0.53696 | 757 ft | 140 kts | 91° |
| 2026-05-07 20:43 | 51.47708 | -0.52141 | 574 ft | 139 kts | 91° |
| 2026-05-07 20:43 | 51.47718 | -0.50596 | 379 ft | 138 kts | 91° |
| 2026-05-07 20:43 | 51.47741 | -0.49089 | 196 ft | 136 kts | 91° |
| 2026-05-07 20:43 | 51.47749 | -0.47575 | 94 ft | 132 kts | 91° |
| 2026-05-07 20:44 | 51.47757 | -0.46298 | 98 ft | 90 kts | 89° |
| 2026-05-07 20:44 | 51.47759 | -0.45610 | 91 ft | 25 kts | 90° |
| 2026-05-07 20:44 | 51.47694 | -0.45475 | 92 ft | 5 kts | 165° |
| 2026-05-07 20:44 | 51.47661 | -0.45469 | 91 ft | 5 kts | 180° |
| 2026-05-07 20:45 | 51.47632 | -0.45469 | 90 ft | 0 kts | 180° |
| 2026-05-07 20:46 | 51.47616 | -0.45469 | 90 ft | 5 kts | 179° |
| 2026-05-07 20:46 | 51.47567 | -0.45468 | 91 ft | 9 kts | 179° |
| 2026-05-07 20:46 | 51.47520 | -0.45416 | 93 ft | 9 kts | 118° |
| 2026-05-07 20:47 | 51.47506 | -0.45310 | 94 ft | 10 kts | 94° |
| 2026-05-07 20:47 | 51.47506 | -0.45198 | 95 ft | 10 kts | 90° |
| 2026-05-07 20:47 | 51.47506 | -0.45086 | 97 ft | 10 kts | 89° |
| 2026-05-07 20:47 | 51.47507 | -0.44968 | 96 ft | 11 kts | 89° |
| 2026-05-07 20:48 | 51.47508 | -0.44827 | 94 ft | 13 kts | 88° |
| 2026-05-07 20:48 | 51.47510 | -0.44681 | 96 ft | 13 kts | 92° |
| 2026-05-07 20:48 | 51.47470 | -0.44571 | 97 ft | 8 kts | 154° |
| 2026-05-07 20:48 | 51.47422 | -0.44559 | 92 ft | 9 kts | 178° |
| 2026-05-07 20:49 | 51.47388 | -0.44558 | 90 ft | 0 kts | 179° |
| 2026-05-07 20:49 | 51.47378 | -0.44558 | 90 ft | 4 kts | 179° |
| 2026-05-07 20:50 | 51.47305 | -0.44556 | 90 ft | 15 kts | 179° |
| 2026-05-07 20:50 | 51.47200 | -0.44557 | 90 ft | 15 kts | 180° |
| 2026-05-07 20:50 | 51.47092 | -0.44580 | 91 ft | 16 kts | 189° |
| 2026-05-07 20:50 | 51.46980 | -0.44558 | 93 ft | 16 kts | 179° |
| 2026-05-07 20:51 | 51.46868 | -0.44557 | 93 ft | 15 kts | 180° |
| 2026-05-07 20:51 | 51.46774 | -0.44556 | 92 ft | 14 kts | 179° |
| 2026-05-07 20:51 | 51.46686 | -0.44586 | 94 ft | 13 kts | 225° |
| 2026-05-07 20:51 | 51.46648 | -0.44668 | 98 ft | 0 kts | 225° |
| 2026-05-07 20:52 | 51.46647 | -0.44669 | 98 ft | 0 kts | 225° |
| 2026-05-07 20:52 | 51.46621 | -0.44709 | 98 ft | 13 kts | 223° |
| 2026-05-07 20:52 | 51.46542 | -0.44825 | 97 ft | 16 kts | 222° |
| 2026-05-07 20:53 | 51.46485 | -0.44903 | 98 ft | 16 kts | 220° |
| 2026-05-07 20:53 | 51.46395 | -0.45032 | 92 ft | 17 kts | 222° |
| 2026-05-07 20:53 | 51.46345 | -0.45104 | 92 ft | 0 kts | 222° |
| 2026-05-07 20:54 | 51.46342 | -0.45108 | 95 ft | 2 kts | 222° |
| 2026-05-07 20:54 | 51.46307 | -0.45159 | 94 ft | 11 kts | 222° |
| 2026-05-07 20:54 | 51.46242 | -0.45252 | 92 ft | 13 kts | 221° |
| 2026-05-07 20:55 | 51.46180 | -0.45339 | 95 ft | 12 kts | 220° |
| 2026-05-07 20:55 | 51.46103 | -0.45348 | 94 ft | 12 kts | 156° |
| 2026-05-07 20:55 | 51.46015 | -0.45326 | 89 ft | 14 kts | 181° |
| 2026-05-07 20:55 | 51.45912 | -0.45329 | 88 ft | 15 kts | 181° |
| 2026-05-07 20:56 | 51.45802 | -0.45331 | 86 ft | 16 kts | 180° |
| 2026-05-07 20:56 | 51.45704 | -0.45260 | 91 ft | 15 kts | 133° |
| 2026-05-07 20:56 | 51.45675 | -0.45124 | 87 ft | 11 kts | 89° |
| 2026-05-07 20:56 | 51.45685 | -0.45007 | 91 ft | 9 kts | 60° |
| 2026-05-07 20:57 | 51.45720 | -0.45005 | 89 ft | 6 kts | 329° |
| 2026-05-07 20:57 | 51.45753 | -0.45037 | 91 ft | 2 kts | 330° |
| 2026-05-07 20:57 | 51.45754 | -0.45038 | 91 ft | 0 kts | 330° |